Time,TemperatureF,DewpointF,PressureIn,WindDirection,WindDirectionDegrees,WindSpeedMPH,WindSpeedGustMPH,Humidity,HourlyPrecipIn,Conditions,Clouds,dailyrainin,SoftwareType,DateUTC
2013-03-23 00:00:00,28.9,25.0,29.98,WSW,240,1.0,2.0,85,0.00,,,0.01,Wunderground v.1.15,2013-03-23 04:00:00,
2013-03-23 00:10:00,28.8,24.9,29.98,WNW,283,1.0,4.0,85,0.00,,,0.00,Wunderground v.1.15,2013-03-23 04:10:00,
2013-03-23 00:15:00,28.9,25.0,29.97,West,260,2.0,4.0,85,0.00,,,0.00,Wunderground v.1.15,2013-03-23 04:15:00,
2013-03-23 00:25:00,28.8,24.6,29.97,SW,232,1.0,4.0,84,0.00,,,0.00,Wunderground v.1.15,2013-03-23 04:25:00,
2013-03-23 00:35:00,28.8,24.9,29.97,SW,225,1.0,1.0,85,0.00,,,0.00,Wunderground v.1.15,2013-03-23 04:35:00,
2013-03-23 00:40:00,28.8,24.6,29.97,SW,231,1.0,3.0,84,0.00,,,0.00,Wunderground v.1.15,2013-03-23 04:40:00,
2013-03-23 00:50:00,28.9,24.7,29.97,West,271,2.0,5.0,84,0.00,,,0.00,Wunderground v.1.15,2013-03-23 04:50:00,
2013-03-23 01:00:00,28.8,24.3,29.97,WSW,239,1.0,3.0,83,0.00,,,0.00,Wunderground v.1.15,2013-03-23 05:00:00,
2013-03-23 01:10:00,28.5,24.0,29.97,WSW,248,2.0,2.0,83,0.00,,,0.00,Wunderground v.1.15,2013-03-23 05:10:00,
2013-03-23 01:20:00,28.1,23.9,29.98,SW,226,1.0,2.0,84,0.00,,,0.00,Wunderground v.1.15,2013-03-23 05:20:00,
2013-03-23 01:25:00,28.1,23.9,29.98,SW,214,1.0,2.0,84,0.00,,,0.00,Wunderground v.1.15,2013-03-23 05:25:00,
2013-03-23 01:35:00,28.2,24.0,29.98,SW,231,1.0,1.0,84,0.00,,,0.00,Wunderground v.1.15,2013-03-23 05:35:00,
2013-03-23 01:45:00,28.5,24.3,29.98,WSW,245,1.0,1.0,84,0.00,,,0.00,Wunderground v.1.15,2013-03-23 05:45:00,
2013-03-23 01:55:00,28.6,24.4,29.98,WSW,245,1.0,1.0,84,0.00,,,0.00,Wunderground v.1.15,2013-03-23 05:55:00,
2013-03-23 02:00:00,28.6,24.4,29.98,NNW,329,1.0,1.0,84,0.00,,,0.00,Wunderground v.1.15,2013-03-23 06:00:00,
2013-03-23 02:10:00,28.6,24.4,29.98,SW,236,2.0,2.0,84,0.00,,,0.00,Wunderground v.1.15,2013-03-23 06:10:00,
2013-03-23 02:20:00,28.2,24.0,29.98,WSW,254,1.0,2.0,84,0.00,,,0.00,Wunderground v.1.15,2013-03-23 06:20:00,
2013-03-23 02:30:00,27.9,23.7,29.98,SW,236,2.0,2.0,84,0.00,,,0.00,Wunderground v.1.15,2013-03-23 06:30:00,
2013-03-23 02:40:00,27.5,23.3,29.98,West,262,1.0,3.0,84,0.00,,,0.00,Wunderground v.1.15,2013-03-23 06:40:00,
2013-03-23 02:50:00,27.3,23.1,29.97,West,262,1.0,1.0,84,0.00,,,0.00,Wunderground v.1.15,2013-03-23 06:50:00,
2013-03-23 03:00:00,27.0,22.8,29.97,West,271,1.0,1.0,84,0.00,,,0.00,Wunderground v.1.15,2013-03-23 07:00:00,
2013-03-23 03:05:00,26.9,22.7,29.97,WSW,249,1.0,1.0,84,0.00,,,0.00,Wunderground v.1.15,2013-03-23 07:05:00,
2013-03-23 03:10:00,26.9,23.0,29.97,West,274,1.0,1.0,85,0.00,,,0.00,Wunderground v.1.15,2013-03-23 07:10:00,
2013-03-23 03:20:00,27.0,23.1,29.97,WSW,245,1.0,2.0,85,0.00,,,0.00,Wunderground v.1.15,2013-03-23 07:20:00,
2013-03-23 03:25:00,27.0,23.1,29.97,West,275,1.0,2.0,85,0.00,,,0.00,Wunderground v.1.15,2013-03-23 07:25:00,
2013-03-23 03:35:00,27.0,23.1,29.96,NNW,332,2.0,2.0,85,0.00,,,0.00,Wunderground v.1.15,2013-03-23 07:35:00,
2013-03-23 03:40:00,27.0,22.8,29.96,WSW,244,1.0,2.0,84,0.00,,,0.00,Wunderground v.1.15,2013-03-23 07:40:00,
2013-03-23 03:45:00,26.9,23.0,29.96,WSW,255,1.0,2.0,85,0.00,,,0.00,Wunderground v.1.15,2013-03-23 07:45:00,
2013-03-23 03:55:00,26.8,22.9,29.96,NE,41,1.0,2.0,85,0.00,,,0.00,Wunderground v.1.15,2013-03-23 07:55:00,
2013-03-23 04:05:00,26.6,22.7,29.95,SW,225,1.0,1.0,85,0.00,,,0.00,Wunderground v.1.15,2013-03-23 08:05:00,
2013-03-23 04:15:00,26.6,23.0,29.96,SW,224,1.0,1.0,86,0.00,,,0.00,Wunderground v.1.15,2013-03-23 08:15:00,
2013-03-23 04:20:00,26.7,23.1,29.96,WSW,254,1.0,1.0,86,0.00,,,0.00,Wunderground v.1.15,2013-03-23 08:20:00,
2013-03-23 04:30:00,26.9,23.3,29.96,West,267,1.0,2.0,86,0.00,,,0.00,Wunderground v.1.15,2013-03-23 08:30:00,
2013-03-23 04:40:00,27.2,23.6,29.96,SW,221,1.0,1.0,86,0.00,,,0.00,Wunderground v.1.15,2013-03-23 08:40:00,
2013-03-23 04:50:00,27.4,23.5,29.96,WSW,245,2.0,2.0,85,0.00,,,0.00,Wunderground v.1.15,2013-03-23 08:50:00,
2013-03-23 05:00:00,27.5,23.6,29.96,WSW,245,2.0,3.0,85,0.00,,,0.00,Wunderground v.1.15,2013-03-23 09:00:00,
2013-03-23 05:10:00,27.7,23.8,29.96,West,280,2.0,3.0,85,0.00,,,0.00,Wunderground v.1.15,2013-03-23 09:10:00,
2013-03-23 05:20:00,27.8,23.6,29.96,WSW,242,1.0,1.0,84,0.00,,,0.00,Wunderground v.1.15,2013-03-23 09:20:00,
2013-03-23 05:25:00,28.0,23.8,29.96,WSW,248,1.0,1.0,84,0.00,,,0.00,Wunderground v.1.15,2013-03-23 09:25:00,
2013-03-23 05:35:00,28.0,23.8,29.96,West,274,1.0,3.0,84,0.00,,,0.00,Wunderground v.1.15,2013-03-23 09:35:00,
2013-03-23 05:40:00,28.0,23.8,29.96,SW,224,1.0,3.0,84,0.00,,,0.00,Wunderground v.1.15,2013-03-23 09:40:00,
2013-03-23 05:50:00,28.0,23.8,29.97,WNW,286,1.0,1.0,84,0.00,,,0.00,Wunderground v.1.15,2013-03-23 09:50:00,
2013-03-23 05:55:00,28.0,23.8,29.97,SW,219,1.0,2.0,84,0.00,,,0.00,Wunderground v.1.15,2013-03-23 09:55:00,
2013-03-23 06:05:00,28.0,23.8,29.97,WSW,254,1.0,1.0,84,0.00,,,0.00,Wunderground v.1.15,2013-03-23 10:05:00,
2013-03-23 06:15:00,28.1,23.9,29.97,NNE,23,1.0,3.0,84,0.00,,,0.00,Wunderground v.1.15,2013-03-23 10:15:00,
2013-03-23 06:20:00,28.1,23.9,29.97,SW,228,1.0,1.0,84,0.00,,,0.00,Wunderground v.1.15,2013-03-23 10:20:00,
2013-03-23 06:30:00,28.3,24.1,29.97,WSW,243,2.0,2.0,84,0.00,,,0.00,Wunderground v.1.15,2013-03-23 10:30:00,
2013-03-23 06:40:00,28.3,24.1,29.98,WSW,246,1.0,1.0,84,0.00,,,0.00,Wunderground v.1.15,2013-03-23 10:40:00,
2013-03-23 06:45:00,28.3,24.1,29.98,West,269,1.0,2.0,84,0.00,,,0.00,Wunderground v.1.15,2013-03-23 10:45:00,
2013-03-23 06:55:00,28.2,24.0,29.98,West,259,1.0,1.0,84,0.00,,,0.00,Wunderground v.1.15,2013-03-23 10:55:00,
2013-03-23 07:00:00,28.3,24.1,29.98,West,260,1.0,1.0,84,0.00,,,0.00,Wunderground v.1.15,2013-03-23 11:00:00,
2013-03-23 07:10:00,28.3,24.1,29.98,West,264,1.0,1.0,84,0.00,,,0.00,Wunderground v.1.15,2013-03-23 11:10:00,
2013-03-23 07:15:00,28.3,24.1,29.98,SW,231,1.0,1.0,84,0.00,,,0.00,Wunderground v.1.15,2013-03-23 11:15:00,
2013-03-23 07:25:00,28.4,24.2,29.98,WNW,290,1.0,1.0,84,0.00,,,0.00,Wunderground v.1.15,2013-03-23 11:25:00,
2013-03-23 07:30:00,28.4,24.2,29.99,WSW,255,1.0,1.0,84,0.00,,,0.00,Wunderground v.1.15,2013-03-23 11:30:00,
2013-03-23 07:35:00,28.4,24.2,29.99,SW,225,1.0,1.0,84,0.00,,,0.00,Wunderground v.1.15,2013-03-23 11:35:00,
2013-03-23 07:45:00,28.1,23.9,29.99,West,266,1.0,3.0,84,0.00,,,0.00,Wunderground v.1.15,2013-03-23 11:45:00,
2013-03-23 07:50:00,28.1,23.9,29.99,WSW,258,1.0,1.0,84,0.00,,,0.00,Wunderground v.1.15,2013-03-23 11:50:00,
2013-03-23 08:00:00,28.2,24.3,29.99,West,259,1.0,1.0,85,0.00,,,0.00,Wunderground v.1.15,2013-03-23 12:00:00,
2013-03-23 08:10:00,28.5,24.3,29.99,West,259,1.0,4.0,84,0.00,,,0.00,Wunderground v.1.15,2013-03-23 12:10:00,
2013-03-23 08:15:00,28.7,24.5,29.99,WSW,238,2.0,4.0,84,0.00,,,0.00,Wunderground v.1.15,2013-03-23 12:15:00,
2013-03-23 08:25:00,29.1,24.9,29.99,WSW,240,1.0,3.0,84,0.00,,,0.00,Wunderground v.1.15,2013-03-23 12:25:00,
2013-03-23 08:35:00,29.4,24.9,29.98,WSW,248,1.0,3.0,83,0.00,,,0.00,Wunderground v.1.15,2013-03-23 12:35:00,
2013-03-23 08:40:00,29.5,25.0,29.98,West,267,1.0,1.0,83,0.00,,,0.00,Wunderground v.1.15,2013-03-23 12:40:00,
2013-03-23 08:50:00,30.0,25.5,29.99,WSW,240,1.0,1.0,83,0.00,,,0.00,Wunderground v.1.15,2013-03-23 12:50:00,
2013-03-23 08:55:00,30.2,25.4,29.99,West,267,1.0,1.0,82,0.00,,,0.00,Wunderground v.1.15,2013-03-23 12:55:00,
2013-03-23 09:05:00,30.6,25.8,29.99,WNW,290,1.0,2.0,82,0.00,,,0.00,Wunderground v.1.15,2013-03-23 13:05:00,
2013-03-23 09:15:00,30.9,26.1,29.99,West,277,1.0,2.0,82,0.00,,,0.00,Wunderground v.1.15,2013-03-23 13:15:00,
2013-03-23 09:25:00,31.3,26.1,29.99,WSW,249,2.0,2.0,81,0.00,,,0.00,Wunderground v.1.15,2013-03-23 13:25:00,
2013-03-23 09:35:00,31.8,26.6,29.99,SSW,205,1.0,3.0,81,0.00,,,0.00,Wunderground v.1.15,2013-03-23 13:35:00,
2013-03-23 09:45:00,32.3,26.8,29.99,WSW,250,1.0,2.0,80,0.00,,,0.00,Wunderground v.1.15,2013-03-23 13:45:00,
2013-03-23 09:55:00,32.8,27.0,29.99,NNW,343,1.0,2.0,79,0.00,,,0.00,Wunderground v.1.15,2013-03-23 13:55:00,
2013-03-23 10:00:00,32.9,27.1,29.99,SSW,212,1.0,3.0,79,0.00,,,0.00,Wunderground v.1.15,2013-03-23 14:00:00,
2013-03-23 10:05:00,33.2,27.1,29.99,WSW,255,1.0,3.0,78,0.00,,,0.00,Wunderground v.1.15,2013-03-23 14:05:00,
2013-03-23 10:10:00,33.5,27.4,30.00,SSW,198,1.0,2.0,78,0.00,,,0.00,Wunderground v.1.15,2013-03-23 14:10:00,
2013-03-23 10:20:00,33.4,27.0,30.00,West,271,1.0,8.0,77,0.00,,,0.00,Wunderground v.1.15,2013-03-23 14:20:00,
2013-03-23 10:30:00,33.8,27.0,30.00,NE,41,2.0,2.0,76,0.00,,,0.00,Wunderground v.1.15,2013-03-23 14:30:00,
2013-03-23 10:35:00,33.9,27.1,30.00,WNW,288,1.0,3.0,76,0.00,,,0.00,Wunderground v.1.15,2013-03-23 14:35:00,
2013-03-23 10:45:00,34.3,26.9,30.00,SW,225,1.0,1.0,74,0.00,,,0.00,Wunderground v.1.15,2013-03-23 14:45:00,
2013-03-23 10:50:00,34.3,27.2,30.00,North,9,1.0,3.0,75,0.00,,,0.00,Wunderground v.1.15,2013-03-23 14:50:00,
2013-03-23 10:55:00,34.0,26.3,30.00,North,10,2.0,3.0,73,0.00,,,0.00,Wunderground v.1.15,2013-03-23 14:55:00,
2013-03-23 11:00:00,33.6,25.9,30.00,North,355,3.0,3.0,73,0.00,,,0.00,Wunderground v.1.15,2013-03-23 15:00:00,
2013-03-23 11:10:00,33.2,25.8,30.01,NW,320,2.0,2.0,74,0.00,,,0.00,Wunderground v.1.15,2013-03-23 15:10:00,
2013-03-23 11:20:00,33.0,25.9,30.01,NNW,335,2.0,2.0,75,0.00,,,0.00,Wunderground v.1.15,2013-03-23 15:20:00,
2013-03-23 11:25:00,33.1,25.7,30.01,North,1,2.0,2.0,74,0.00,,,0.00,Wunderground v.1.15,2013-03-23 15:25:00,
2013-03-23 11:35:00,33.2,25.8,30.01,NW,323,2.0,2.0,74,0.00,,,0.00,Wunderground v.1.15,2013-03-23 15:35:00,
2013-03-23 11:40:00,33.5,26.1,30.01,WSW,258,2.0,2.0,74,0.00,,,0.00,Wunderground v.1.15,2013-03-23 15:40:00,
2013-03-23 11:50:00,34.0,26.3,30.01,North,8,1.0,1.0,73,0.00,,,0.00,Wunderground v.1.15,2013-03-23 15:50:00,
2013-03-23 12:00:00,34.4,26.3,30.02,NW,319,1.0,3.0,72,0.00,,,0.00,Wunderground v.1.15,2013-03-23 16:00:00,
2013-03-23 12:10:00,35.1,25.6,30.02,South,191,2.0,2.0,68,0.00,,,0.01,Wunderground v.1.15,2013-03-23 16:10:00,
2013-03-23 12:15:00,35.4,24.8,30.02,WNW,302,2.0,3.0,65,0.00,,,0.01,Wunderground v.1.15,2013-03-23 16:15:00,
2013-03-23 12:25:00,36.0,25.4,30.02,North,349,2.0,4.0,65,0.00,,,0.01,Wunderground v.1.15,2013-03-23 16:25:00,
2013-03-23 12:35:00,36.0,25.0,30.02,SW,222,2.0,3.0,64,0.00,,,0.01,Wunderground v.1.15,2013-03-23 16:35:00,
2013-03-23 12:40:00,35.8,25.2,30.02,ESE,115,3.0,3.0,65,0.00,,,0.02,Wunderground v.1.15,2013-03-23 16:40:00,
2013-03-23 12:50:00,36.4,24.6,30.02,WSW,256,1.0,1.0,62,0.00,,,0.02,Wunderground v.1.15,2013-03-23 16:50:00,
2013-03-23 12:55:00,36.5,25.5,30.02,West,262,2.0,3.0,64,0.00,,,0.02,Wunderground v.1.15,2013-03-23 16:55:00,
2013-03-23 13:00:00,36.1,25.5,30.02,SW,225,2.0,2.0,65,0.00,,,0.02,Wunderground v.1.15,2013-03-23 17:00:00,
2013-03-23 13:10:00,36.3,25.7,30.02,North,351,1.0,2.0,65,0.00,,,0.02,Wunderground v.1.15,2013-03-23 17:10:00,
2013-03-23 13:20:00,37.0,25.2,30.02,WNW,287,2.0,3.0,62,0.00,,,0.02,Wunderground v.1.15,2013-03-23 17:20:00,
2013-03-23 13:30:00,37.1,23.7,30.02,NNW,328,2.0,2.0,58,0.00,,,0.02,Wunderground v.1.15,2013-03-23 17:30:00,
2013-03-23 13:40:00,39.1,25.6,30.01,SW,224,2.0,2.0,58,0.00,,,0.02,Wunderground v.1.15,2013-03-23 17:40:00,
2013-03-23 13:45:00,38.5,23.7,30.01,NNW,342,2.0,2.0,55,0.00,,,0.02,Wunderground v.1.15,2013-03-23 17:45:00,
2013-03-23 13:55:00,38.6,25.5,30.01,WNW,290,2.0,2.0,59,0.00,,,0.02,Wunderground v.1.15,2013-03-23 17:55:00,
2013-03-23 14:00:00,39.5,25.1,30.01,NNW,331,1.0,2.0,56,0.00,,,0.02,Wunderground v.1.15,2013-03-23 18:00:00,
2013-03-23 14:10:00,38.6,23.4,30.01,WSW,255,2.0,2.0,54,0.00,,,0.02,Wunderground v.1.15,2013-03-23 18:10:00,
2013-03-23 14:15:00,38.9,24.5,30.01,West,277,2.0,2.0,56,0.00,,,0.02,Wunderground v.1.15,2013-03-23 18:15:00,
2013-03-23 14:25:00,38.9,23.7,30.01,West,269,2.0,2.0,54,0.00,,,0.02,Wunderground v.1.15,2013-03-23 18:25:00,
2013-03-23 14:30:00,39.2,24.4,30.00,WSW,250,2.0,2.0,55,0.00,,,0.02,Wunderground v.1.15,2013-03-23 18:30:00,
2013-03-23 14:35:00,39.9,24.1,30.00,WNW,283,2.0,2.0,53,0.00,,,0.02,Wunderground v.1.15,2013-03-23 18:35:00,
2013-03-23 14:45:00,40.2,23.5,30.00,West,278,3.0,3.0,51,0.00,,,0.02,Wunderground v.1.15,2013-03-23 18:45:00,
2013-03-23 14:55:00,39.6,23.4,30.00,WSW,248,3.0,3.0,52,0.00,,,0.02,Wunderground v.1.15,2013-03-23 18:55:00,
2013-03-23 15:00:00,39.2,23.0,30.00,SW,229,2.0,5.0,52,0.00,,,0.02,Wunderground v.1.15,2013-03-23 19:00:00,
2013-03-23 15:05:00,39.0,22.8,30.00,WNW,297,2.0,5.0,52,0.00,,,0.02,Wunderground v.1.15,2013-03-23 19:05:00,
2013-03-23 15:10:00,38.7,23.5,30.00,East,98,2.0,2.0,54,0.00,,,0.02,Wunderground v.1.15,2013-03-23 19:10:00,
2013-03-23 15:20:00,39.7,23.5,30.00,WSW,243,3.0,3.0,52,0.00,,,0.02,Wunderground v.1.15,2013-03-23 19:20:00,
2013-03-23 15:30:00,39.9,23.7,30.00,North,352,3.0,3.0,52,0.00,,,0.02,Wunderground v.1.15,2013-03-23 19:30:00,
2013-03-23 15:40:00,40.2,23.5,30.00,WNW,300,3.0,3.0,51,0.00,,,0.02,Wunderground v.1.15,2013-03-23 19:40:00,
2013-03-23 15:50:00,40.3,23.1,30.00,NNW,335,2.0,3.0,50,0.00,,,0.02,Wunderground v.1.15,2013-03-23 19:50:00,
2013-03-23 15:55:00,39.8,22.7,30.00,North,353,3.0,5.0,50,0.00,,,0.02,Wunderground v.1.15,2013-03-23 19:55:00,
2013-03-23 16:05:00,40.6,22.9,30.00,NW,316,3.0,4.0,49,0.00,,,0.02,Wunderground v.1.15,2013-03-23 20:05:00,
2013-03-23 16:15:00,40.3,23.1,30.00,West,277,3.0,3.0,50,0.00,,,0.02,Wunderground v.1.15,2013-03-23 20:15:00,
2013-03-23 16:25:00,41.0,23.8,30.00,West,260,3.0,4.0,50,0.00,,,0.02,Wunderground v.1.15,2013-03-23 20:25:00,
2013-03-23 16:30:00,40.8,23.1,30.00,NNW,347,3.0,3.0,49,0.00,,,0.02,Wunderground v.1.15,2013-03-23 20:30:00,
2013-03-23 16:40:00,39.2,22.6,30.00,North,360,2.0,3.0,51,0.00,,,0.02,Wunderground v.1.15,2013-03-23 20:40:00,
2013-03-23 16:50:00,39.1,21.5,30.00,WNW,302,2.0,3.0,49,0.00,,,0.02,Wunderground v.1.15,2013-03-23 20:50:00,
2013-03-23 17:00:00,39.0,21.9,30.00,West,280,2.0,3.0,50,0.00,,,0.02,Wunderground v.1.15,2013-03-23 21:00:00,
2013-03-23 17:10:00,38.9,20.9,30.00,NNW,329,2.0,2.0,48,0.00,,,0.02,Wunderground v.1.15,2013-03-23 21:10:00,
2013-03-23 17:20:00,38.7,21.2,30.00,WNW,300,2.0,2.0,49,0.00,,,0.02,Wunderground v.1.15,2013-03-23 21:20:00,
2013-03-23 17:30:00,38.9,22.3,30.00,SSE,167,2.0,2.0,51,0.00,,,0.02,Wunderground v.1.15,2013-03-23 21:30:00,
2013-03-23 17:40:00,38.5,22.4,30.01,NNW,329,2.0,2.0,52,0.00,,,0.02,Wunderground v.1.15,2013-03-23 21:40:00,
2013-03-23 17:50:00,37.9,20.9,30.01,NW,321,3.0,3.0,50,0.00,,,0.02,Wunderground v.1.15,2013-03-23 21:50:00,
2013-03-23 18:00:00,38.1,22.0,30.01,NNW,345,2.0,2.0,52,0.00,,,0.02,Wunderground v.1.15,2013-03-23 22:00:00,
2013-03-23 18:10:00,38.7,21.6,30.01,West,267,2.0,3.0,50,0.00,,,0.02,Wunderground v.1.15,2013-03-23 22:10:00,
2013-03-23 18:20:00,38.7,21.2,30.01,West,267,3.0,3.0,49,0.00,,,0.02,Wunderground v.1.15,2013-03-23 22:20:00,
2013-03-23 18:25:00,38.5,20.5,30.01,SW,236,2.0,3.0,48,0.00,,,0.02,Wunderground v.1.15,2013-03-23 22:25:00,
2013-03-23 18:35:00,37.9,21.8,30.01,WSW,249,2.0,3.0,52,0.00,,,0.02,Wunderground v.1.15,2013-03-23 22:35:00,
2013-03-23 18:40:00,37.8,21.7,30.01,WNW,302,1.0,3.0,52,0.00,,,0.02,Wunderground v.1.15,2013-03-23 22:40:00,
2013-03-23 18:50:00,37.2,21.6,30.01,North,354,2.0,2.0,53,0.00,,,0.02,Wunderground v.1.15,2013-03-23 22:50:00,
2013-03-23 19:00:00,36.7,22.0,30.02,WSW,238,1.0,1.0,55,0.00,,,0.02,Wunderground v.1.15,2013-03-23 23:00:00,
2013-03-23 19:05:00,36.6,21.9,30.02,SW,224,1.0,1.0,55,0.00,,,0.02,Wunderground v.1.15,2013-03-23 23:05:00,
2013-03-23 19:15:00,36.4,22.2,30.02,SW,224,1.0,2.0,56,0.00,,,0.02,Wunderground v.1.15,2013-03-23 23:15:00,
2013-03-23 19:20:00,36.3,22.1,30.02,ENE,78,1.0,1.0,56,0.00,,,0.02,Wunderground v.1.15,2013-03-23 23:20:00,
2013-03-23 19:25:00,36.1,22.3,30.02,West,265,1.0,1.0,57,0.00,,,0.02,Wunderground v.1.15,2013-03-23 23:25:00,
2013-03-23 19:35:00,35.6,22.3,30.02,West,261,0.0,1.0,58,0.00,,,0.02,Wunderground v.1.15,2013-03-23 23:35:00,
2013-03-23 19:40:00,35.4,22.5,30.02,WSW,255,0.0,0.0,59,0.00,,,0.02,Wunderground v.1.15,2013-03-23 23:40:00,
2013-03-23 19:50:00,35.3,22.8,30.03,WSW,252,1.0,1.0,60,0.00,,,0.02,Wunderground v.1.15,2013-03-23 23:50:00,
2013-03-23 20:00:00,35.4,22.9,30.03,WSW,238,1.0,1.0,60,0.00,,,0.02,Wunderground v.1.15,2013-03-24 00:00:00,
2013-03-23 20:10:00,35.4,23.3,30.04,WSW,256,1.0,1.0,61,0.00,,,0.02,Wunderground v.1.15,2013-03-24 00:10:00,
2013-03-23 20:15:00,35.5,23.4,30.04,WSW,255,1.0,1.0,61,0.00,,,0.02,Wunderground v.1.15,2013-03-24 00:15:00,
2013-03-23 20:25:00,35.4,23.7,30.03,SSW,205,1.0,1.0,62,0.00,,,0.02,Wunderground v.1.15,2013-03-24 00:25:00,
2013-03-23 20:30:00,35.3,23.6,30.03,NNE,25,0.0,0.0,62,0.00,,,0.02,Wunderground v.1.15,2013-03-24 00:30:00,
2013-03-23 20:40:00,35.0,23.7,30.03,NNE,17,0.0,0.0,63,0.00,,,0.02,Wunderground v.1.15,2013-03-24 00:40:00,
2013-03-23 20:45:00,34.9,23.6,30.03,WSW,253,1.0,1.0,63,0.00,,,0.02,Wunderground v.1.15,2013-03-24 00:45:00,
2013-03-23 20:55:00,34.6,23.7,30.04,North,356,1.0,1.0,64,0.00,,,0.02,Wunderground v.1.15,2013-03-24 00:55:00,
2013-03-23 21:00:00,34.5,23.9,30.03,NNW,333,1.0,2.0,65,0.00,,,0.02,Wunderground v.1.15,2013-03-24 01:00:00,
2013-03-23 21:05:00,34.4,23.8,30.03,North,359,1.0,2.0,65,0.00,,,0.02,Wunderground v.1.15,2013-03-24 01:05:00,
2013-03-23 21:15:00,34.2,24.0,30.03,West,274,1.0,1.0,66,0.00,,,0.02,Wunderground v.1.15,2013-03-24 01:15:00,
2013-03-23 21:20:00,34.0,24.2,30.03,WNW,290,1.0,1.0,67,0.00,,,0.02,Wunderground v.1.15,2013-03-24 01:20:00,
2013-03-23 21:30:00,33.6,24.2,30.04,West,259,0.0,1.0,68,0.00,,,0.02,Wunderground v.1.15,2013-03-24 01:30:00,
2013-03-23 21:40:00,33.4,24.0,30.04,WNW,287,1.0,1.0,68,0.00,,,0.02,Wunderground v.1.15,2013-03-24 01:40:00,
2013-03-23 21:45:00,33.3,23.5,30.04,West,266,1.0,1.0,67,0.00,,,0.02,Wunderground v.1.15,2013-03-24 01:45:00,
2013-03-23 21:50:00,33.2,23.4,30.04,NE,43,1.0,1.0,67,0.00,,,0.02,Wunderground v.1.15,2013-03-24 01:50:00,
2013-03-23 22:00:00,33.1,23.3,30.05,West,261,1.0,1.0,67,0.00,,,0.02,Wunderground v.1.15,2013-03-24 02:00:00,
2013-03-23 22:10:00,33.1,23.7,30.04,WSW,242,1.0,1.0,68,0.00,,,0.02,Wunderground v.1.15,2013-03-24 02:10:00,
2013-03-23 22:15:00,33.1,23.7,30.05,WSW,250,1.0,1.0,68,0.00,,,0.02,Wunderground v.1.15,2013-03-24 02:15:00,
2013-03-23 22:25:00,33.0,23.9,30.04,WSW,253,0.0,1.0,69,0.00,,,0.02,Wunderground v.1.15,2013-03-24 02:25:00,
2013-03-23 22:30:00,32.9,23.8,30.04,ESE,111,0.0,0.0,69,0.00,,,0.02,Wunderground v.1.15,2013-03-24 02:30:00,
2013-03-23 22:40:00,32.6,23.9,30.04,SSW,212,0.0,0.0,70,0.00,,,0.02,Wunderground v.1.15,2013-03-24 02:40:00,
2013-03-23 22:50:00,32.2,23.8,30.04,West,263,0.0,0.0,71,0.00,,,0.02,Wunderground v.1.15,2013-03-24 02:50:00,
2013-03-23 23:00:00,32.0,24.0,30.04,NNW,342,0.0,0.0,72,0.00,,,0.02,Wunderground v.1.15,2013-03-24 03:00:00,
2013-03-23 23:10:00,31.8,24.1,30.04,NNW,330,0.0,0.0,73,0.00,,,0.02,Wunderground v.1.15,2013-03-24 03:10:00,
2013-03-23 23:15:00,31.9,23.9,30.05,WSW,253,0.0,0.0,72,0.00,,,0.02,Wunderground v.1.15,2013-03-24 03:15:00,
2013-03-23 23:25:00,31.7,24.0,30.05,East,84,1.0,1.0,73,0.00,,,0.02,Wunderground v.1.15,2013-03-24 03:25:00,
2013-03-23 23:35:00,31.5,24.2,30.05,West,259,1.0,1.0,74,0.00,,,0.02,Wunderground v.1.15,2013-03-24 03:35:00,
2013-03-23 23:45:00,31.2,24.2,30.05,WSW,257,1.0,1.0,75,0.00,,,0.02,Wunderground v.1.15,2013-03-24 03:45:00,
2013-03-23 23:55:00,30.9,24.2,30.05,NW,305,0.0,0.0,76,0.00,,,0.02,Wunderground v.1.15,2013-03-24 03:55:00,